DW0975 Weather Reports


Display with metric or nautical units.
time (UTC)temp
F
wind
direction
speed
MPH
gust
MPH
rain 1hr
in
rain 24hr
in
rain mn
in
humidity
%
barometer
mb
20191018164921 46 203 18.0 26.0 0.00 0.00 0.00 14 1004.0
20191018163921 46 203 18.0 22.0 0.00 0.00 0.00 17 1002.9
20191018162920 46 225 20.0 22.0 0.00 0.00 0.00 17 1002.9
20191018160919 46 225 17.0 18.0 0.00 0.00 0.00 17 1004.0
20191018153919 44 203 6.0 9.0 0.00 0.00 0.00 18 1004.0
20191018150919 44 225 7.0 9.0 0.00 0.00 0.00 20 1002.9
20191018145918 44 225 8.0 8.0 0.00 0.00 0.00 18 1002.9
20191018143917 44 203 8.0 11.0 0.00 0.00 0.00 18 1002.9
20191018140916 42 180 4.0 9.0 0.00 0.00 0.00 21 1002.9
20191018134915 39 180 4.0 6.0 0.00 0.00 0.00 26 1002.9
20191018132915 39 180 9.0 10.0 0.00 0.00 0.00 23 1002.9
20191018125914 41 180 6.0 12.0 0.00 0.00 0.00 23 1002.9
20191018124914 39 203 9.0 11.0 0.00 0.00 0.00 30 1002.9
20191018120913 35 45 3.0 3.0 0.00 0.00 0.00 32 1002.9
20191018115942 35 270 0.0 4.0 0.00 0.00 0.00 31 1002.9
20191018114942 37 225 3.0 4.0 0.00 0.00 0.00 31 1002.9
20191018111911 38 203 4.0 6.0 0.00 0.00 0.00 30 1002.9
20191018110912 38 203 3.0 5.0 0.00 0.00 0.00 31 1002.9
20191018104910 39 203 3.0 7.0 0.00 0.00 0.00 28 1002.9
20191018094908 39 248 1.0 5.0 0.00 0.00 0.00 29 1002.9
20191018093908 40 225 3.0 7.0 0.00 0.00 0.00 29 1002.9
20191018085907 39 180 6.0 11.0 0.00 0.00 0.00 29 1002.9
20191018084907 40 180 8.0 10.0 0.00 0.00 0.00 28 1002.9
20191018075905 41 203 6.0 7.0 0.00 0.00 0.00 29 1002.0
20191018074904 40 203 4.0 5.0 0.00 0.00 0.00 29 1002.9
20191018072904 38 203 3.0 4.0 0.00 0.00 0.00 33 1002.9
20191018072004 37 203 3.0 3.0 0.00 0.00 0.00 34 1002.9
20191018062903 39 158 5.0 7.0 0.00 0.00 0.00 31 1002.9
20191018060901 39 180 3.0 4.0 0.00 0.00 0.00 29 1004.0
20191018051933 36 158 6.0 8.0 0.00 0.00 0.00 30 1002.9
20191018044902 39 203 4.0 9.0 0.00 0.00 0.00 21 1002.9
20191018042931 42 225 8.0 10.0 0.00 0.00 0.00 18 1002.9
20191018034930 42 225 9.0 13.0 0.00 0.00 0.00 18 1002.0
20191018032929 41 203 7.0 9.0 0.00 0.00 0.00 21 1002.0
20191018031929 41 203 5.0 7.0 0.00 0.00 0.00 21 1002.9
20191018024928 42 225 8.0 11.0 0.00 0.00 0.00 21 1002.9
20191018023928 42 203 5.0 6.0 0.00 0.00 0.00 21 1002.9
20191018022927 42 203 3.0 8.0 0.00 0.00 0.00 21 1002.9
20191018020927 44 225 8.0 14.0 0.00 0.00 0.00 20 1002.9
20191018014926 44 225 10.0 12.0 0.00 0.00 0.00 20 1004.0
20191018012926 46 225 12.0 15.0 0.00 0.00 0.00 20 1002.9
20191018010925 48 225 6.0 18.0 0.00 0.00 0.00 14 1002.9
20191018005925 49 225 15.0 20.0 0.00 0.00 0.00 14 1002.9
20191018004925 50 225 20.0 24.0 0.00 0.00 0.00 14 1004.0
20191018003924 51 248 23.0 29.0 0.00 0.00 0.00 14 1002.9
20191018002924 52 248 17.0 24.0 0.00 0.00 0.00 14 1002.9
20191018000923 53 225 12.0 23.0 0.00 0.00 0.00 13 1002.0
20191017232922 52 225 11.0 24.0 0.00 0.00 0.00 13 1002.0
20191017231922 53 225 18.0 26.0 0.00 0.00 0.00 13 1002.0
20191017223921 54 225 20.0 26.0 0.00 0.00 0.00 13 1000.9
20191017222921 55 225 15.0 23.0 0.00 0.00 0.00 15 1000.9
20191017213919 57 203 12.0 24.0 0.00 0.00 0.00 15 1000.9
20191017212919 57 203 15.0 23.0 0.00 0.00 0.00 14 1000.9
20191017211918 58 203 16.0 26.0 0.00 0.00 0.00 14 1000.9
20191017210919 58 203 26.0 28.0 0.00 0.00 0.00 14 1000.0
20191017204917 58 225 13.0 29.0 0.00 0.00 0.00 14 1000.9
20191017203918 59 225 13.0 24.0 0.00 0.00 0.00 14 1000.9
20191017194916 58 225 15.0 23.0 0.00 0.00 0.00 14 1000.9
20191017194015 58 203 19.0 23.0 0.00 0.00 0.00 14 1000.9
20191017190915 57 203 15.0 23.0 0.00 0.00 0.00 14 1000.9
20191017184915 57 203 12.0 23.0 0.00 0.00 0.00 14 1000.9
20191017182944 57 225 15.0 27.0 0.00 0.00 0.00 14 1000.9
20191017181913 57 225 20.0 28.0 0.00 0.00 0.00 14 1000.9
20191017174912 57 225 15.0 27.0 0.00 0.00 0.00 14 1000.9
20191017172912 57 225 10.0 22.0 0.00 0.00 0.00 15 1000.9